Pagrindinis puslapis
METAR-TAF:

METAR-TAF

Oro uostai :

Umeo, Švedija

platuma: 63-48N, ilguma: 020-17E, Aukštis: 7 m

Dabartinis oras

Ataskaita buvo paskelbta 43 minutes, ne 19:50 UTC
Vėjas 9 kt iš Pietų
Temperatūra 16°C
Drėgmė 88%
Slėgis 1007 hPa
Matomumas 10 km arba daugiau
Išsisklaidę debesys ne aukštis 1300 ft

METAR: ESNU 171950Z 17009KT 9999 SCT013 16/14 Q1007

Laikas: 22:33 (20:33 UTC)

Prognozė

Ataskaita buvo paskelbta 3 valandos ir 3 minutes, ne 17:30 UTC
Prognozė galioja nuo 17 metu 18 UTC su 18 metu 03 UTC
Vėjas 11 kt iš Pietų
Matomumas 10 km arba daugiau
Išsisklaidę debesys ne aukštis 2000 ft
Tapsmas
nuo 18 metu 02 UTC su 18 metu 03 UTC
Su prošvaistėmis ne aukštis 1000 ft
lietus

TAF: ESNU 171730Z 1718/1803 18011KT 9999 SCT020 BECMG 1802/1803 RA BKN010

Orai ataskaitas ir orų prognozės (METAR, TAF).

turimą stotys yra geltonos ir raudonos taškus žemėlapyje.

Perkelti pele per norėdami pamatyti stoties vardą.

Tada spustelėkite, norėdami matyti oro stebėjimo ir prognozės.

Norėdami pakeisti žemėlapį: spustelėkite ant žalios mygtukų su juodo kryžiaus žemyn,; žalią mygtuką su brūkšneliu, jei norite nutolinti; arba žalių rodyklių gretimoms žemėlapius.


METAR-TAF: